CYUY

Details ICAO CYUY (YUY)
Name ROUYN NORANDA
Region Canada
Timezone America/Montreal (UTC-5.0)
Plans Departing 15
Arriving 7
Stats Elevation 988 ft / 301 m (AMSL)
Location 48.205801° -78.835263°
Runways 1
Magnetic Variation 12.212° W
Sunrise 2017-12-12 12:58:29 UTC / 2017-12-12 07:58:29 Local
Sunset 2017-12-12 21:22:43 UTC / 2017-12-12 16:22:43 Local
Advertisement - Login to hide

Runways

ID Width Length Bearing (true) Bearing (mag) Surface Threshold Offset Overrun Length
08 150 ft / 46 m 7,470 ft / 2,277 m 62.31° 74.52° Asphalt 0 ft / 0 m 0 ft / 0 m
26 150 ft / 46 m 7,470 ft / 2,277 m 242.33° 254.54° Asphalt 0 ft / 0 m 0 ft / 0 m

Approach Navaids

Runway Type Ident Frequency Range Bearing (true) Bearing (mag) Slope Elevation
08 Localiser IUY 109.90 MHz 18 nm / 33 km 64.28° 76.49° - 988 ft / 301 m (AMSL)

Map

Weather


0- 5 10 15 20 25 30 35+ Temperature / ° C

Clouds and Precipitation
Forecast for 2017-12-12 12:00 UTC. Updated an hour ago

Ground ~20,000 ft ~40,000 ft Winds

METAR

CYUY 121200Z 05007KT 4SM -SN BKN024 M19/M21 A2975 RMK SC7 SLP106

TAF

TAF CYUY 121138Z 1212/1224 03007KT P6SM SCT030 BKN100 FM121400 36010G20KT P6SM BKN030 TEMPO 1214/1224 3SM -SN OVC020 RMK NXT FCST BY 121800Z

Frequencies

Tower 122.20 MHz MF
Warning: Do not use this data for real-world aviation or navigation. No guarantee of current accuracy is given.